Time;durP1;ratioP1;P1;durP2;ratioP2;P2;SDS_P1;SDS_P2;PMS_P1;PMS_P2;Temp;Humidity;BMP_temperature;BMP_pressure;BME280_temperature;BME280_humidity;BME280_pressure;Samples;Min_cycle;Max_cycle;Signal;HPM_P1;HPM_P2
2023/09/27 00:00:25;;;;;;;5.53;4.05;;;18.10;99.90;;;;;;5017228;28;20215;-78
2023/09/27 00:02:55;;;;;;;4.53;4.15;;;18.00;1.00;;;;;;5037278;28;20199;-78
2023/09/27 00:05:23;;;;;;;4.22;3.90;;;18.20;1.00;;;;;;5016033;28;20210;-78
2023/09/27 00:07:51;;;;;;;6.28;4.80;;;18.30;1.00;;;;;;5034489;28;20551;-78
2023/09/27 00:10:19;;;;;;;5.63;4.72;;;18.50;1.00;;;;;;5018811;28;20202;-78
2023/09/27 00:12:47;;;;;;;4.57;4.18;;;18.50;1.00;;;;;;5015674;28;20200;-78
2023/09/27 00:15:15;;;;;;;4.65;4.13;;;18.60;1.00;;;;;;5027629;28;20206;-78
2023/09/27 00:17:44;;;;;;;5.78;4.88;;;18.60;1.00;;;;;;5016120;28;20203;-78
2023/09/27 00:20:15;;;;;;;5.30;4.80;;;18.50;1.00;;;;;;5041811;28;20571;-77
2023/09/27 00:22:45;;;;;;;5.20;4.18;;;18.50;1.00;;;;;;5015237;28;20214;-78
2023/09/27 00:25:14;;;;;;;5.05;4.28;;;18.40;1.00;;;;;;5023693;28;20210;-78
2023/09/27 00:27:41;;;;;;;5.07;4.57;;;18.50;1.00;;;;;;5016862;28;20199;-78
2023/09/27 00:30:13;;;;;;;4.97;4.53;;;18.30;1.00;;;;;;5015381;28;20203;-78
2023/09/27 00:32:41;;;;;;;5.15;4.40;;;18.30;1.00;;;;;;5029586;28;20218;-78
2023/09/27 00:35:12;;;;;;;4.68;4.28;;;18.30;1.00;;;;;;5015137;28;20222;-78
2023/09/27 00:37:39;;;;;;;5.18;4.22;;;18.40;1.00;;;;;;5023189;28;20202;-78
2023/09/27 00:40:10;;;;;;;4.90;4.50;;;18.40;1.00;;;;;;5024431;28;20222;-77
2023/09/27 00:42:38;;;;;;;5.32;4.93;;;18.50;1.00;;;;;;5023933;28;20222;-78
2023/09/27 00:45:07;;;;;;;5.47;5.00;;;18.50;1.00;;;;;;5023792;28;20203;-78
2023/09/27 00:47:36;;;;;;;5.63;5.22;;;18.40;99.90;;;;;;5014799;28;20203;-78
2023/09/27 00:50:04;;;;;;;5.35;4.85;;;18.40;1.00;;;;;;5032598;28;20195;-78
2023/09/27 00:52:33;;;;;;;6.07;4.43;;;18.40;1.00;;;;;;5027928;28;20222;-78
2023/09/27 00:55:01;;;;;;;5.55;5.00;;;18.30;1.00;;;;;;5027400;28;20194;-78
2023/09/27 00:57:30;;;;;;;5.63;4.70;;;18.40;1.00;;;;;;5039236;28;20199;-78
2023/09/27 00:59:59;;;;;;;5.75;5.05;;;18.30;99.90;;;;;;5017870;28;20538;-78
2023/09/27 01:02:43;;;;;;;5.50;5.00;;;18.20;15.30;;;;;;5030338;28;20222;-78
2023/09/27 01:05:10;;;;;;;4.82;4.32;;;18.00;1.00;;;;;;5017997;28;20203;-78
2023/09/27 01:07:40;;;;;;;4.88;4.43;;;17.90;99.90;;;;;;5020745;28;20203;-78
2023/09/27 01:10:08;;;;;;;5.10;4.60;;;18.00;99.90;;;;;;5026597;28;20205;-78
2023/09/27 01:12:38;;;;;;;5.45;4.97;;;18.00;1.00;;;;;;5017240;28;20250;-78
2023/09/27 01:15:07;;;;;;;5.95;5.18;;;17.90;1.00;;;;;;5027085;28;20198;-78
2023/09/27 01:17:35;;;;;;;6.40;5.80;;;17.70;1.00;;;;;;5022478;28;20607;-77
2023/09/27 01:20:08;;;;;;;5.22;4.82;;;17.70;99.90;;;;;;5019465;28;20210;-78
2023/09/27 01:22:35;;;;;;;6.80;5.75;;;17.70;1.00;;;;;;5016583;28;20222;-78
2023/09/27 01:25:09;;;;;;;5.90;5.43;;;17.60;1.00;;;;;;5022376;28;20207;-78
2023/09/27 01:27:37;;;;;;;7.13;4.90;;;17.50;1.00;;;;;;5017627;28;20191;-78
2023/09/27 01:30:06;;;;;;;6.43;5.18;;;17.40;1.00;;;;;;5026696;28;20559;-78
2023/09/27 01:32:34;;;;;;;5.47;4.97;;;17.20;1.00;;;;;;5020576;28;20223;-78
2023/09/27 01:35:02;;;;;;;5.70;5.10;;;17.20;1.00;;;;;;5020670;28;20203;-78
2023/09/27 01:37:32;;;;;;;5.30;4.72;;;17.10;99.90;;;;;;5039806;28;20199;-78
2023/09/27 01:40:00;;;;;;;5.85;5.28;;;17.20;1.00;;;;;;5024444;28;20710;-78
2023/09/27 01:42:29;;;;;;;5.72;5.20;;;17.20;99.90;;;;;;5024021;28;20583;-78
2023/09/27 01:44:57;;;;;;;6.40;5.18;;;17.20;1.00;;;;;;5027247;28;20198;-78
2023/09/27 01:47:24;;;;;;;5.70;5.20;;;17.00;99.90;;;;;;5025632;28;20202;-78
2023/09/27 01:49:51;;;;;;;5.00;4.60;;;16.90;99.90;;;;;;5032275;28;20191;-78
2023/09/27 01:52:19;;;;;;;5.78;5.28;;;16.70;1.00;;;;;;5038202;28;20211;-78
2023/09/27 01:54:46;;;;;;;5.57;5.07;;;16.60;1.00;;;;;;5014874;28;20203;-78
2023/09/27 01:57:13;;;;;;;5.70;5.15;;;16.70;1.00;;;;;;5017303;28;20210;-78
2023/09/27 01:59:43;;;;;;;5.47;5.07;;;16.90;99.90;;;;;;5030712;28;20210;-78
2023/09/27 02:02:10;;;;;;;5.88;5.38;;;16.90;99.90;;;;;;5024824;28;20233;-78
2023/09/27 02:04:38;;;;;;;5.38;4.95;;;17.10;29.80;;;;;;5019169;28;20199;-78
2023/09/27 02:07:05;;;;;;;5.35;4.82;;;17.10;1.00;;;;;;5023960;28;20287;-78
2023/09/27 02:09:33;;;;;;;5.60;4.95;;;17.00;1.00;;;;;;5015237;28;20191;-78
2023/09/27 02:12:01;;;;;;;5.10;4.70;;;16.80;99.90;;;;;;5020472;28;20218;-78
2023/09/27 02:14:28;;;;;;;5.43;5.00;;;16.60;1.00;;;;;;5024422;28;20202;-78
2023/09/27 02:16:57;;;;;;;6.07;5.55;;;16.70;99.90;;;;;;5021964;28;20199;-78
2023/09/27 02:19:25;;;;;;;7.50;5.82;;;16.70;28.80;;;;;;5016689;28;20537;-77
2023/09/27 02:21:52;;;;;;;5.15;4.65;;;16.70;1.00;;;;;;5050020;28;20221;-78
2023/09/27 02:24:20;;;;;;;5.65;5.07;;;16.50;1.00;;;;;;5023928;28;20201;-78
2023/09/27 02:26:48;;;;;;;4.95;4.40;;;16.30;1.00;;;;;;5023845;28;20198;-78
2023/09/27 02:29:16;;;;;;;4.90;4.40;;;16.20;1.00;;;;;;5027693;28;20210;-78
2023/09/27 02:31:43;;;;;;;5.63;5.22;;;16.40;1.00;;;;;;5018354;28;20707;-78
2023/09/27 02:34:13;;;;;;;5.70;5.20;;;16.60;1.00;;;;;;5031668;28;20574;-78
2023/09/27 02:36:42;;;;;;;5.22;4.72;;;16.90;1.00;;;;;;5037181;28;20203;-78
2023/09/27 02:39:11;;;;;;;7.00;5.20;;;17.10;99.90;;;;;;5018573;28;20207;-77
2023/09/27 02:41:39;;;;;;;5.80;5.30;;;17.10;99.90;;;;;;5013782;28;20254;-78
2023/09/27 02:44:06;;;;;;;6.40;5.78;;;17.10;99.90;;;;;;5033126;28;20195;-78
2023/09/27 02:46:34;;;;;;;6.20;5.60;;;17.00;1.00;;;;;;5019845;28;20190;-78
2023/09/27 02:49:04;;;;;;;6.22;5.40;;;17.10;1.00;;;;;;5017989;28;20203;-78
2023/09/27 02:51:33;;;;;;;5.28;4.75;;;17.10;1.00;;;;;;5016077;28;20222;-78
2023/09/27 02:54:01;;;;;;;5.10;4.63;;;17.00;41.90;;;;;;5023191;28;20675;-78
2023/09/27 02:56:28;;;;;;;5.55;5.05;;;16.90;99.90;;;;;;5021624;28;20210;-78
2023/09/27 02:58:56;;;;;;;5.20;4.70;;;17.10;40.10;;;;;;5032326;28;20198;-78
2023/09/27 03:01:24;;;;;;;5.40;4.90;;;17.20;32.50;;;;;;5022068;28;20580;-78
2023/09/27 03:03:52;;;;;;;5.47;4.97;;;17.30;7.40;;;;;;5017593;28;20199;-78
2023/09/27 03:06:20;;;;;;;5.95;5.38;;;17.30;82.80;;;;;;5028713;28;20201;-78
2023/09/27 03:08:48;;;;;;;6.22;4.82;;;17.40;58.20;;;;;;5044030;28;20199;-78
2023/09/27 03:11:17;;;;;;;8.73;4.60;;;17.40;98.20;;;;;;5038272;28;20211;-78
2023/09/27 03:13:45;;;;;;;7.25;5.35;;;17.40;99.90;;;;;;5021685;28;20195;-78
2023/09/27 03:16:12;;;;;;;5.70;5.20;;;17.50;99.90;;;;;;5023142;28;20198;-78
2023/09/27 03:18:39;;;;;;;4.85;4.45;;;17.50;99.90;;;;;;5025979;28;20206;-78
2023/09/27 03:21:07;;;;;;;5.68;5.15;;;17.50;87.20;;;;;;5018944;28;20708;-78
2023/09/27 03:23:34;;;;;;;5.95;5.35;;;17.40;99.90;;;;;;5024360;28;20206;-78
2023/09/27 03:26:04;;;;;;;5.95;4.75;;;17.40;99.90;;;;;;5041868;28;20195;-77
2023/09/27 03:28:32;;;;;;;5.20;4.70;;;17.40;99.90;;;;;;5032892;28;20573;-78
2023/09/27 03:31:00;;;;;;;5.57;4.85;;;17.50;99.90;;;;;;5021971;28;20692;-78
2023/09/27 03:33:28;;;;;;;5.72;5.18;;;17.40;93.60;;;;;;5027359;28;20195;-77
2023/09/27 03:35:57;;;;;;;6.88;5.38;;;17.30;99.90;;;;;;5020694;28;20195;-78
2023/09/27 03:38:26;;;;;;;5.32;4.82;;;17.20;99.90;;;;;;5019216;28;20198;-78
2023/09/27 03:40:54;;;;;;;5.57;5.07;;;17.20;99.90;;;;;;5028148;28;20230;-78
2023/09/27 03:43:22;;;;;;;5.47;4.97;;;17.10;99.90;;;;;;5026943;28;20203;-78
2023/09/27 03:45:51;;;;;;;5.50;4.80;;;17.10;99.90;;;;;;5042381;28;20661;-78
2023/09/27 03:48:19;;;;;;;5.70;5.20;;;16.90;99.90;;;;;;5021985;28;20890;-78
2023/09/27 03:50:47;;;;;;;5.50;5.00;;;16.90;99.90;;;;;;5015072;28;20214;-78
2023/09/27 03:53:15;;;;;;;7.38;5.55;;;16.80;99.90;;;;;;5019594;28;20542;-78
2023/09/27 03:55:42;;;;;;;6.28;5.68;;;16.80;99.90;;;;;;5020045;28;20202;-78
2023/09/27 03:58:10;;;;;;;5.95;5.43;;;16.90;99.90;;;;;;5018113;28;20199;-78
2023/09/27 04:00:39;;;;;;;5.47;5.00;;;16.80;99.90;;;;;;5022948;28;20696;-78
2023/09/27 04:03:07;;;;;;;6.10;5.57;;;16.70;99.90;;;;;;5010944;28;20201;-78
2023/09/27 04:05:34;;;;;;;6.70;5.38;;;16.70;99.90;;;;;;5019686;28;20210;-78
2023/09/27 04:08:01;;;;;;;7.38;5.28;;;16.70;99.90;;;;;;5018386;28;20210;-78
2023/09/27 04:10:29;;;;;;;6.72;5.47;;;16.70;99.90;;;;;;5017944;28;20201;-78
2023/09/27 04:12:57;;;;;;;5.47;5.03;;;16.80;99.90;;;;;;5016885;28;20214;-77
2023/09/27 04:15:24;;;;;;;5.72;5.10;;;17.00;99.90;;;;;;5040457;28;20215;-78
2023/09/27 04:17:53;;;;;;;6.68;5.38;;;17.00;99.90;;;;;;5038520;28;20209;-78
2023/09/27 04:20:21;;;;;;;7.07;5.47;;;17.00;99.90;;;;;;5036328;28;20611;-78
2023/09/27 04:22:50;;;;;;;6.00;5.43;;;16.80;99.90;;;;;;5014661;28;20197;-78
2023/09/27 04:25:19;;;;;;;5.60;4.93;;;16.70;99.90;;;;;;5044202;28;20197;-78
2023/09/27 04:27:49;;;;;;;5.65;5.15;;;16.80;99.90;;;;;;5038609;28;20195;-78
2023/09/27 04:30:19;;;;;;;5.70;5.18;;;16.80;99.90;;;;;;5033162;28;20202;-78
2023/09/27 04:32:50;;;;;;;5.78;5.28;;;16.70;99.90;;;;;;5035947;28;20205;-78
2023/09/27 04:35:19;;;;;;;5.78;5.15;;;16.60;99.90;;;;;;5016887;28;20214;-78
2023/09/27 04:37:47;;;;;;;6.47;5.88;;;16.30;99.90;;;;;;5018761;28;20195;-78
2023/09/27 04:40:14;;;;;;;6.85;5.93;;;16.20;99.90;;;;;;5017637;28;20207;-77
2023/09/27 04:42:47;;;;;;;5.95;5.38;;;16.20;99.90;;;;;;5020690;28;20402;-77
2023/09/27 04:45:16;;;;;;;5.50;5.00;;;16.10;99.90;;;;;;5034853;28;20198;-77
2023/09/27 04:47:44;;;;;;;6.60;5.60;;;16.10;99.90;;;;;;5020395;28;20218;-77
2023/09/27 04:50:12;;;;;;;6.57;5.97;;;16.10;99.90;;;;;;5019494;28;20559;-78
2023/09/27 04:52:41;;;;;;;7.35;6.13;;;16.10;99.90;;;;;;5027554;28;20261;-78
2023/09/27 04:55:10;;;;;;;8.70;5.55;;;16.10;99.90;;;;;;5017637;28;20665;-78
2023/09/27 04:57:37;;;;;;;5.72;5.22;;;16.20;99.90;;;;;;5016497;28;20210;-78
2023/09/27 05:00:14;;;;;;;6.05;5.55;;;16.40;99.90;;;;;;5019114;28;20199;-78
2023/09/27 05:02:41;;;;;;;7.15;6.30;;;16.50;99.90;;;;;;5038237;28;20226;-77
2023/09/27 05:05:09;;;;;;;7.10;6.40;;;16.40;99.90;;;;;;5014808;28;20203;-78
2023/09/27 05:07:36;;;;;;;6.03;5.43;;;16.40;99.90;;;;;;5020205;28;20210;-78
2023/09/27 05:10:40;;;;;;;5.80;5.20;;;16.20;99.90;;;;;;5019466;28;20202;-78
2023/09/27 05:13:14;;;;;;;6.10;5.53;;;15.90;99.90;;;;;;5026209;28;20205;-78
2023/09/27 05:15:56;;;;;;;6.15;5.35;;;15.70;99.90;;;;;;5019228;28;20653;-76
2023/09/27 05:18:24;;;;;;;7.03;5.40;;;15.50;99.90;;;;;;5031238;23;20234;-78
2023/09/27 05:20:51;;;;;;;6.32;5.72;;;15.60;99.90;;;;;;5028488;28;20198;-80
2023/09/27 05:23:39;;;;;;;7.47;6.00;;;15.60;99.90;;;;;;5042522;28;20210;-77
2023/09/27 05:26:11;;;;;;;8.80;5.90;;;15.50;99.90;;;;;;5048017;28;20203;-77
2023/09/27 05:28:39;;;;;;;7.35;5.40;;;15.20;99.90;;;;;;5046919;28;20229;-77
2023/09/27 05:31:06;;;;;;;7.57;5.47;;;15.20;99.90;;;;;;5065954;28;20658;-76
2023/09/27 05:33:34;;;;;;;9.55;5.97;;;15.30;99.90;;;;;;5061909;28;20685;-79
2023/09/27 05:36:01;;;;;;;6.45;5.15;;;15.40;99.90;;;;;;5061349;28;20206;-78
2023/09/27 05:38:29;;;;;;;6.07;5.57;;;15.40;99.90;;;;;;5061968;28;20222;-77
2023/09/27 05:40:56;;;;;;;7.15;5.35;;;15.50;99.90;;;;;;5058128;28;20206;-77
2023/09/27 05:43:25;;;;;;;7.68;5.97;;;15.50;99.90;;;;;;5064641;28;20201;-77
2023/09/27 05:45:52;;;;;;;5.90;5.25;;;15.60;99.90;;;;;;5060206;28;20196;-78
2023/09/27 05:48:20;;;;;;;7.25;5.55;;;15.60;99.90;;;;;;5060603;28;20284;-77
2023/09/27 05:51:02;;;;;;;10.00;5.95;;;15.60;99.90;;;;;;5067179;28;20558;-77
2023/09/27 05:53:52;;;;;;;6.97;6.13;;;16.20;99.90;;;;;;5061199;28;20213;-78
2023/09/27 05:56:27;;;;;;;9.45;6.88;;;16.80;99.90;;;;;;5056031;28;20194;-77
2023/09/27 05:58:59;;;;;;;10.77;7.10;;;17.10;99.90;;;;;;5059755;28;20718;-78
2023/09/27 06:01:31;;;;;;;8.82;6.80;;;17.10;99.90;;;;;;5058796;28;20702;-78
2023/09/27 06:03:59;;;;;;;9.38;7.38;;;16.90;99.90;;;;;;5062309;28;20201;-77
2023/09/27 06:06:27;;;;;;;8.85;7.38;;;16.80;99.90;;;;;;5057190;28;20213;-78
2023/09/27 06:08:56;;;;;;;8.23;7.03;;;16.70;99.90;;;;;;5064602;28;20217;-78
2023/09/27 06:11:24;;;;;;;7.45;6.68;;;16.50;99.90;;;;;;5062003;28;20193;-78
2023/09/27 06:13:51;;;;;;;8.25;7.05;;;16.20;99.90;;;;;;5059744;28;20201;-78
2023/09/27 06:16:24;;;;;;;7.30;6.60;;;16.20;99.90;;;;;;5052243;28;20565;-79
2023/09/27 06:18:51;;;;;;;8.07;6.30;;;16.50;99.90;;;;;;5062276;28;20247;-82
2023/09/27 06:21:19;;;;;;;8.43;6.85;;;16.50;99.90;;;;;;5062771;28;20205;-81
2023/09/27 06:23:46;;;;;;;9.75;6.30;;;16.60;99.90;;;;;;5058698;28;20204;-85
2023/09/27 06:26:14;;;;;;;9.10;6.95;;;17.10;99.90;;;;;;5054489;28;20288;-81
2023/09/27 06:28:41;;;;;;;8.13;6.82;;;17.50;99.90;;;;;;5061536;28;20241;-83
2023/09/27 06:31:09;;;;;;;9.05;6.68;;;17.70;99.90;;;;;;5061653;28;20194;-81
2023/09/27 06:33:39;;;;;;;8.25;7.43;;;17.90;99.90;;;;;;5068979;28;20201;-81
2023/09/27 06:36:08;;;;;;;10.52;7.00;;;17.40;99.90;;;;;;5063387;28;20197;-81
2023/09/27 06:38:36;;;;;;;10.50;7.00;;;17.10;99.90;;;;;;5070714;28;20224;-80
2023/09/27 06:41:04;;;;;;;11.45;7.30;;;17.50;99.90;;;;;;5071405;28;20206;-80
2023/09/27 06:43:31;;;;;;;8.68;7.57;;;17.80;99.90;;;;;;5073852;28;20217;-80
2023/09/27 06:46:01;;;;;;;7.45;6.75;;;17.40;99.90;;;;;;5069330;28;20537;-80
2023/09/27 06:48:28;;;;;;;9.13;7.68;;;17.00;99.90;;;;;;5067077;28;20222;-80
2023/09/27 06:50:57;;;;;;;8.82;7.70;;;17.00;99.90;;;;;;5070496;28;20194;-80
2023/09/27 06:53:26;;;;;;;8.13;7.22;;;16.90;99.90;;;;;;5060993;28;20187;-79
2023/09/27 06:55:53;;;;;;;8.70;7.00;;;17.00;99.90;;;;;;5074085;28;20198;-80
2023/09/27 06:58:24;;;;;;;8.55;7.50;;;17.10;99.90;;;;;;5071954;28;20261;-79
2023/09/27 07:00:54;;;;;;;9.57;8.25;;;17.10;99.90;;;;;;5065568;28;20194;-79
2023/09/27 07:03:24;;;;;;;8.43;7.50;;;17.10;99.90;;;;;;5072603;28;20205;-79
2023/09/27 07:05:52;;;;;;;10.93;7.43;;;17.10;99.90;;;;;;5070537;28;20202;-79
2023/09/27 07:08:21;;;;;;;8.23;7.25;;;17.10;99.90;;;;;;5067405;28;20222;-79
2023/09/27 07:10:49;;;;;;;10.40;6.90;;;17.10;99.90;;;;;;5065141;28;20209;-78
2023/09/27 07:13:17;;;;;;;9.55;7.20;;;17.30;99.90;;;;;;5066587;28;20209;-78
2023/09/27 07:15:45;;;;;;;10.38;6.97;;;17.50;99.90;;;;;;5065104;28;20206;-79
2023/09/27 07:18:13;;;;;;;8.20;6.35;;;17.60;99.90;;;;;;5063369;28;20218;-78
2023/09/27 07:20:42;;;;;;;7.38;6.75;;;18.00;99.90;;;;;;5067673;28;20693;-78
2023/09/27 07:23:14;;;;;;;8.73;7.50;;;17.90;99.90;;;;;;5069594;28;20454;-79
2023/09/27 07:25:45;;;;;;;8.95;7.13;;;17.90;99.90;;;;;;5065970;28;20202;-79
2023/09/27 07:28:12;;;;;;;7.90;7.10;;;17.60;99.90;;;;;;5066693;28;20210;-79
2023/09/27 07:30:40;;;;;;;9.10;8.10;;;17.60;99.90;;;;;;5068443;28;20201;-79
2023/09/27 07:33:10;;;;;;;8.40;7.60;;;17.60;99.90;;;;;;5068856;28;20202;-79
2023/09/27 07:35:42;;;;;;;10.60;7.47;;;17.60;99.90;;;;;;5063514;28;20194;-79
2023/09/27 07:38:12;;;;;;;8.27;7.05;;;17.60;99.90;;;;;;5052172;28;20195;-79
2023/09/27 07:40:47;;;;;;;8.43;7.28;;;17.70;99.90;;;;;;5079704;28;20651;-79
2023/09/27 07:43:15;;;;;;;10.82;7.68;;;17.80;99.90;;;;;;5081286;28;20218;-79
2023/09/27 07:45:46;;;;;;;8.50;7.70;;;17.70;99.90;;;;;;5078656;28;20193;-79
2023/09/27 07:48:14;;;;;;;10.57;7.88;;;17.80;99.90;;;;;;5071063;28;20226;-79
2023/09/27 07:50:42;;;;;;;8.00;7.20;;;17.90;99.90;;;;;;5071133;28;20206;-79
2023/09/27 07:53:11;;;;;;;9.05;7.90;;;17.90;99.90;;;;;;5068578;28;20202;-79
2023/09/27 07:55:46;;;;;;;9.65;8.40;;;17.90;99.90;;;;;;5072495;28;20190;-79
2023/09/27 07:58:15;;;;;;;8.98;8.18;;;18.00;99.90;;;;;;5073612;28;20222;-79
2023/09/27 08:00:43;;;;;;;9.88;8.02;;;18.20;99.90;;;;;;5072003;28;20209;-79
2023/09/27 08:03:11;;;;;;;9.88;7.70;;;18.20;99.90;;;;;;5072163;28;20220;-82
2023/09/27 08:05:43;;;;;;;11.98;8.38;;;18.30;99.90;;;;;;5071558;28;20210;-79
2023/09/27 08:08:11;;;;;;;9.30;7.93;;;18.40;99.90;;;;;;5054348;28;20216;-78
2023/09/27 08:10:43;;;;;;;9.25;8.30;;;18.50;99.90;;;;;;5061913;28;20201;-78
2023/09/27 08:13:12;;;;;;;8.82;7.75;;;18.60;99.90;;;;;;5057375;28;20198;-78
2023/09/27 08:15:42;;;;;;;8.52;7.68;;;18.50;99.90;;;;;;5057264;28;20212;-78
2023/09/27 08:18:09;;;;;;;10.23;8.18;;;18.70;99.90;;;;;;5060483;28;20194;-78
2023/09/27 08:20:37;;;;;;;8.15;6.95;;;18.80;99.90;;;;;;5061403;28;20203;-78
2023/09/27 08:23:04;;;;;;;7.93;7.13;;;18.90;99.90;;;;;;5063437;28;20213;-78
2023/09/27 08:25:32;;;;;;;7.47;6.57;;;19.10;99.90;;;;;;5078332;28;20202;-78
2023/09/27 08:28:02;;;;;;;10.85;7.25;;;19.20;99.90;;;;;;5057095;28;20202;-78
2023/09/27 08:30:32;;;;;;;7.78;7.07;;;19.30;99.90;;;;;;5063540;28;20205;-78
2023/09/27 08:33:01;;;;;;;8.23;7.18;;;19.40;99.90;;;;;;5061421;28;20216;-78
2023/09/27 08:35:29;;;;;;;8.60;7.22;;;19.30;99.90;;;;;;5059326;28;20545;-78
2023/09/27 08:37:57;;;;;;;8.90;7.47;;;19.40;99.90;;;;;;5063841;28;20212;-78
2023/09/27 08:40:25;;;;;;;8.18;7.38;;;19.50;99.90;;;;;;5061216;28;20193;-78
2023/09/27 08:42:57;;;;;;;8.05;7.25;;;19.40;99.90;;;;;;5059754;28;20212;-78
2023/09/27 08:45:25;;;;;;;8.27;7.10;;;19.50;99.90;;;;;;5055027;28;20214;-78
2023/09/27 08:47:54;;;;;;;12.43;7.10;;;19.60;99.90;;;;;;5059234;28;20210;-78
2023/09/27 08:50:25;;;;;;;9.13;8.15;;;19.70;99.90;;;;;;5060709;28;20210;-78
2023/09/27 08:52:53;;;;;;;7.45;6.40;;;19.70;99.90;;;;;;5064856;28;20202;-79
2023/09/27 08:55:20;;;;;;;8.32;7.22;;;19.60;99.90;;;;;;5058344;28;20202;-78
2023/09/27 08:57:49;;;;;;;7.72;6.97;;;19.60;99.90;;;;;;5057201;28;20202;-78
2023/09/27 09:00:20;;;;;;;8.23;7.53;;;19.60;99.90;;;;;;5054631;28;20221;-78
2023/09/27 09:02:56;;;;;;;8.50;7.70;;;19.60;99.90;;;;;;5053357;28;20214;-78
2023/09/27 09:05:27;;;;;;;7.88;6.70;;;19.70;99.90;;;;;;5056815;28;20202;-77
2023/09/27 09:07:56;;;;;;;14.15;7.22;;;19.80;99.90;;;;;;5059536;28;20201;-75
2023/09/27 09:10:28;;;;;;;7.88;7.07;;;20.00;99.90;;;;;;5055199;28;20539;-76
2023/09/27 09:12:59;;;;;;;8.95;7.32;;;20.10;99.90;;;;;;5050005;28;20198;-77
2023/09/27 09:15:35;;;;;;;5.88;5.28;;;20.20;99.90;;;;;;5058107;28;20199;-78
2023/09/27 09:18:06;;;;;;;8.88;5.68;;;20.20;99.90;;;;;;5052390;28;20563;-78
2023/09/27 09:20:49;;;;;;;6.13;5.53;;;20.20;99.90;;;;;;5080679;28;20194;-78
2023/09/27 09:23:47;;;;;;;8.35;5.88;;;20.20;99.90;;;;;;5055599;28;20225;-78
2023/09/27 09:26:27;;;;;;;6.20;5.60;;;20.30;99.90;;;;;;5057070;28;20209;-78
2023/09/27 09:29:07;;;;;;;5.45;4.75;;;20.50;99.90;;;;;;5065794;28;20232;-78
2023/09/27 09:31:35;;;;;;;5.90;4.35;;;20.70;99.90;;;;;;5065136;28;20205;-78
2023/09/27 09:34:04;;;;;;;6.85;6.25;;;20.80;99.90;;;;;;5066039;28;20198;-79
2023/09/27 09:36:34;;;;;;;7.88;6.00;;;20.70;90.60;;;;;;5067967;28;20201;-77
2023/09/27 09:39:13;;;;;;;7.57;5.68;;;20.80;98.80;;;;;;5066636;28;20240;-78
2023/09/27 09:41:48;;;;;;;8.95;6.53;;;21.00;99.80;;;;;;5060602;28;20550;-78
2023/09/27 09:44:20;;;;;;;6.32;5.45;;;21.20;99.30;;;;;;5060211;28;20209;-78
2023/09/27 09:46:48;;;;;;;5.60;5.10;;;21.20;99.90;;;;;;5069916;28;20194;-78
2023/09/27 09:49:16;;;;;;;6.70;4.97;;;21.20;99.90;;;;;;5062110;28;20224;-78
2023/09/27 09:51:48;;;;;;;6.32;4.97;;;21.30;99.90;;;;;;5066539;28;20201;-78
2023/09/27 09:54:26;;;;;;;5.35;4.70;;;21.30;99.90;;;;;;5060927;28;20190;-78
2023/09/27 09:56:57;;;;;;;7.03;4.88;;;21.40;99.90;;;;;;5059853;28;20204;-78
2023/09/27 09:59:28;;;;;;;5.05;4.50;;;21.50;99.90;;;;;;5067268;28;20228;-79
2023/09/27 10:02:00;;;;;;;5.72;5.00;;;21.60;99.90;;;;;;5069633;28;20201;-79
2023/09/27 10:04:28;;;;;;;5.28;4.57;;;21.60;99.90;;;;;;5060171;28;20214;-79
2023/09/27 10:06:58;;;;;;;6.43;4.45;;;21.70;99.90;;;;;;5068638;28;20196;-78
2023/09/27 10:09:28;;;;;;;5.45;4.55;;;21.80;99.90;;;;;;5067318;28;20222;-78
2023/09/27 10:11:59;;;;;;;4.97;4.47;;;21.80;99.90;;;;;;5057887;28;20206;-78
2023/09/27 10:14:37;;;;;;;6.00;5.40;;;21.80;99.90;;;;;;5059172;28;20193;-77
2023/09/27 10:17:05;;;;;;;7.00;5.15;;;21.70;99.90;;;;;;5061786;28;20570;-78
2023/09/27 10:19:32;;;;;;;5.93;5.32;;;21.80;99.90;;;;;;5060031;28;20229;-77
2023/09/27 10:22:05;;;;;;;6.30;5.70;;;22.00;99.90;;;;;;5061532;28;20202;-77
2023/09/27 10:24:34;;;;;;;6.65;5.50;;;22.20;99.90;;;;;;5050357;28;20202;-76
2023/09/27 10:27:41;;;;;;;6.85;5.20;;;22.30;99.90;;;;;;5055715;28;20214;-77
2023/09/27 10:30:53;;;;;;;6.53;5.15;;;22.40;99.90;;;;;;5053112;28;20221;-77
2023/09/27 10:33:31;;;;;;;5.07;4.50;;;22.60;99.90;;;;;;5061391;28;20194;-77
2023/09/27 10:36:29;;;;;;;5.22;4.55;;;22.80;99.90;;;;;;5060024;28;20198;-77
2023/09/27 10:39:07;;;;;;;5.38;4.35;;;23.00;99.90;;;;;;5055351;28;20214;-80
2023/09/27 10:41:46;;;;;;;6.10;4.10;;;23.00;99.90;;;;;;5053607;28;20201;-80
2023/09/27 10:44:28;;;;;;;5.95;4.38;;;23.30;99.90;;;;;;5054032;28;20214;-82
2023/09/27 10:46:55;;;;;;;6.57;4.72;;;23.40;99.90;;;;;;5070636;28;20201;-80
2023/09/27 10:49:24;;;;;;;5.10;4.60;;;23.30;99.90;;;;;;5062885;28;20225;-79
2023/09/27 10:51:52;;;;;;;6.03;4.55;;;23.10;99.90;;;;;;5065040;28;20217;-79
2023/09/27 10:54:36;;;;;;;7.10;4.75;;;23.20;99.90;;;;;;5055070;28;20194;-79
2023/09/27 10:57:04;;;;;;;5.05;4.55;;;23.30;99.90;;;;;;5066215;28;20204;-79
2023/09/27 10:59:31;;;;;;;5.60;4.25;;;23.50;99.90;;;;;;5065498;28;20217;-79
2023/09/27 11:02:00;;;;;;;5.13;4.53;;;23.70;99.90;;;;;;5068927;28;20205;-78
2023/09/27 11:04:27;;;;;;;5.10;4.30;;;23.60;99.90;;;;;;5058478;28;20217;-78
2023/09/27 11:06:56;;;;;;;6.05;4.82;;;23.70;99.90;;;;;;5061783;28;20198;-79
2023/09/27 11:09:24;;;;;;;6.25;4.93;;;23.60;99.90;;;;;;5066675;28;20221;-79
2023/09/27 11:11:54;;;;;;;6.25;4.40;;;23.90;99.90;;;;;;5065704;28;20194;-79
2023/09/27 11:14:31;;;;;;;6.70;4.53;;;23.90;99.90;;;;;;5070361;28;20199;-79
2023/09/27 11:17:14;;;;;;;5.40;4.47;;;23.90;99.90;;;;;;5070048;28;20216;-79
2023/09/27 11:19:41;;;;;;;4.75;4.20;;;24.10;99.90;;;;;;5060075;28;20221;-79
2023/09/27 11:22:09;;;;;;;6.43;4.53;;;24.30;99.90;;;;;;5069265;28;20205;-79
2023/09/27 11:24:40;;;;;;;5.03;4.20;;;24.30;99.90;;;;;;5064513;28;20237;-79
2023/09/27 11:27:11;;;;;;;5.07;4.10;;;24.20;99.90;;;;;;5068261;28;20210;-79
2023/09/27 11:29:38;;;;;;;4.65;4.25;;;24.10;99.90;;;;;;5065695;28;20224;-80
2023/09/27 11:32:06;;;;;;;5.82;4.10;;;24.20;99.90;;;;;;5055297;28;20562;-79
2023/09/27 11:34:33;;;;;;;5.00;4.15;;;24.30;99.90;;;;;;5061120;28;20197;-79
2023/09/27 11:37:02;;;;;;;4.20;3.80;;;24.20;99.90;;;;;;5071486;28;20552;-79
2023/09/27 11:39:47;;;;;;;6.20;4.15;;;24.30;99.90;;;;;;5063390;28;20215;-79
2023/09/27 11:42:21;;;;;;;4.03;3.63;;;24.30;99.90;;;;;;5067976;28;20209;-79
2023/09/27 11:45:03;;;;;;;5.22;4.03;;;24.10;99.90;;;;;;5072364;28;20564;-79
2023/09/27 11:47:32;;;;;;;4.70;3.75;;;24.30;99.90;;;;;;5057410;28;20194;-79
2023/09/27 11:49:59;;;;;;;7.05;3.95;;;24.30;99.90;;;;;;5074333;28;20218;-79
2023/09/27 11:52:26;;;;;;;4.93;3.72;;;23.90;99.70;;;;;;5065701;28;20718;-79
2023/09/27 11:54:54;;;;;;;5.63;3.80;;;23.80;99.60;;;;;;5063839;28;20201;-79
2023/09/27 11:57:24;;;;;;;5.30;3.70;;;24.00;99.90;;;;;;5060568;28;20198;-79
2023/09/27 11:59:52;;;;;;;5.03;4.05;;;24.10;99.90;;;;;;5057257;28;20210;-79
2023/09/27 12:02:21;;;;;;;7.53;3.60;;;24.30;99.90;;;;;;5070276;28;20674;-79
2023/09/27 12:04:48;;;;;;;5.20;3.97;;;24.40;99.90;;;;;;5068463;28;20555;-79
2023/09/27 12:07:16;;;;;;;4.90;3.33;;;24.50;99.90;;;;;;5066951;28;20256;-78
2023/09/27 12:09:43;;;;;;;4.90;3.65;;;24.50;99.90;;;;;;5061192;28;20221;-77
2023/09/27 12:12:12;;;;;;;5.63;3.65;;;24.20;99.90;;;;;;5068005;28;20209;-77
2023/09/27 12:14:41;;;;;;;5.22;3.83;;;24.20;99.90;;;;;;5062560;28;20222;-77
2023/09/27 12:17:09;;;;;;;3.83;3.47;;;24.30;99.90;;;;;;5052570;28;20557;-77
2023/09/27 12:19:36;;;;;;;3.80;3.33;;;24.50;99.90;;;;;;5064827;28;20232;-78
2023/09/27 12:22:03;;;;;;;4.57;3.40;;;24.90;99.90;;;;;;5063876;28;20197;-78
2023/09/27 12:24:31;;;;;;;4.28;3.85;;;24.90;99.90;;;;;;5051780;28;20221;-78
2023/09/27 12:26:59;;;;;;;8.35;4.68;;;25.10;98.30;;;;;;5052111;28;20209;-78
2023/09/27 12:29:27;;;;;;;7.70;5.07;;;25.50;98.80;;;;;;5062785;28;20237;-78
2023/09/27 12:31:55;;;;;;;6.13;4.82;;;25.90;98.80;;;;;;5058250;28;20186;-78
2023/09/27 12:34:23;;;;;;;6.00;5.40;;;25.90;98.10;;;;;;5068125;28;20200;-78
2023/09/27 12:36:50;;;;;;;9.48;5.25;;;26.10;98.20;;;;;;5053061;28;20195;-78
2023/09/27 12:39:17;;;;;;;8.85;4.82;;;26.10;97.60;;;;;;5061806;28;20225;-79
2023/09/27 12:41:45;;;;;;;3.70;2.78;;;26.10;96.60;;;;;;5058514;28;20198;-78
2023/09/27 12:44:12;;;;;;;4.45;2.65;;;25.40;94.40;;;;;;5067856;28;20201;-78
2023/09/27 12:46:40;;;;;;;2.60;2.40;;;25.50;93.40;;;;;;5066800;28;20217;-78
2023/09/27 12:49:09;;;;;;;3.08;2.78;;;25.70;93.10;;;;;;5061571;28;20229;-79
2023/09/27 12:51:36;;;;;;;3.75;2.60;;;25.90;92.70;;;;;;5055850;28;20202;-78
2023/09/27 12:54:04;;;;;;;3.05;2.75;;;25.80;93.10;;;;;;5068703;28;20201;-78
2023/09/27 12:56:31;;;;;;;3.00;2.70;;;25.90;92.80;;;;;;5070984;28;20212;-78
2023/09/27 12:58:59;;;;;;;4.00;2.63;;;26.40;93.30;;;;;;5062357;28;20217;-79
2023/09/27 13:01:26;;;;;;;4.43;2.70;;;26.10;92.40;;;;;;5050254;28;20210;-78